sensor_id;sensor_type;location;lat;lon;timestamp;temperature;humidity
8220;DHT22;4151;51.110;7.020;2024-03-23T00:54:38;7.10;99.90
8220;DHT22;4151;51.110;7.020;2024-03-23T00:57:03;7.10;99.90
8220;DHT22;4151;51.110;7.020;2024-03-23T00:59:29;7.10;99.90
8220;DHT22;4151;51.110;7.020;2024-03-23T01:01:56;7.20;99.90
8220;DHT22;4151;51.110;7.020;2024-03-23T01:04:21;7.20;99.90
8220;DHT22;4151;51.110;7.020;2024-03-23T01:06:47;7.20;99.90
8220;DHT22;4151;51.110;7.020;2024-03-23T01:09:13;7.20;99.90
8220;DHT22;4151;51.110;7.020;2024-03-23T01:11:39;7.20;99.90
8220;DHT22;4151;51.110;7.020;2024-03-23T01:14:05;7.10;99.90
8220;DHT22;4151;51.110;7.020;2024-03-23T01:16:31;7.10;99.90
8220;DHT22;4151;51.110;7.020;2024-03-23T01:18:57;7.00;99.90
8220;DHT22;4151;51.110;7.020;2024-03-23T01:21:23;6.90;99.90
8220;DHT22;4151;51.110;7.020;2024-03-23T01:23:48;6.80;99.90
8220;DHT22;4151;51.110;7.020;2024-03-23T01:26:14;6.80;99.90
8220;DHT22;4151;51.110;7.020;2024-03-23T01:28:40;6.80;99.90
8220;DHT22;4151;51.110;7.020;2024-03-23T01:31:06;6.70;99.90
8220;DHT22;4151;51.110;7.020;2024-03-23T01:33:31;6.80;99.90
8220;DHT22;4151;51.110;7.020;2024-03-23T01:35:57;6.70;99.90
8220;DHT22;4151;51.110;7.020;2024-03-23T01:38:22;6.60;99.90
8220;DHT22;4151;51.110;7.020;2024-03-23T01:40:48;6.70;99.90
8220;DHT22;4151;51.110;7.020;2024-03-23T01:43:13;6.60;99.90
8220;DHT22;4151;51.110;7.020;2024-03-23T01:45:39;6.60;99.90
8220;DHT22;4151;51.110;7.020;2024-03-23T01:48:05;6.60;99.90
8220;DHT22;4151;51.110;7.020;2024-03-23T01:50:31;6.60;99.90
8220;DHT22;4151;51.110;7.020;2024-03-23T01:53:02;6.50;99.90
8220;DHT22;4151;51.110;7.020;2024-03-23T01:55:28;6.50;99.90
8220;DHT22;4151;51.110;7.020;2024-03-23T01:57:56;6.50;99.90
8220;DHT22;4151;51.110;7.020;2024-03-23T02:00:22;6.40;99.90
8220;DHT22;4151;51.110;7.020;2024-03-23T02:02:48;6.40;99.90
8220;DHT22;4151;51.110;7.020;2024-03-23T02:05:14;6.40;99.90
8220;DHT22;4151;51.110;7.020;2024-03-23T02:07:41;6.40;99.90
8220;DHT22;4151;51.110;7.020;2024-03-23T02:10:07;6.40;99.90
8220;DHT22;4151;51.110;7.020;2024-03-23T02:12:35;6.30;99.90
8220;DHT22;4151;51.110;7.020;2024-03-23T02:15:01;6.30;99.90
8220;DHT22;4151;51.110;7.020;2024-03-23T02:17:27;6.30;99.90
8220;DHT22;4151;51.110;7.020;2024-03-23T02:19:53;6.30;99.90
8220;DHT22;4151;51.110;7.020;2024-03-23T02:22:19;6.30;99.90
8220;DHT22;4151;51.110;7.020;2024-03-23T02:24:44;6.10;99.90
8220;DHT22;4151;51.110;7.020;2024-03-23T02:27:10;6.00;99.90
8220;DHT22;4151;51.110;7.020;2024-03-23T02:29:36;6.00;99.90
8220;DHT22;4151;51.110;7.020;2024-03-23T02:32:02;6.00;99.90
8220;DHT22;4151;51.110;7.020;2024-03-23T02:34:27;6.00;99.90
8220;DHT22;4151;51.110;7.020;2024-03-23T02:36:53;5.90;99.90
8220;DHT22;4151;51.110;7.020;2024-03-23T02:39:19;5.80;99.90
8220;DHT22;4151;51.110;7.020;2024-03-23T02:41:45;5.70;99.90
8220;DHT22;4151;51.110;7.020;2024-03-23T02:44:10;5.70;99.90
8220;DHT22;4151;51.110;7.020;2024-03-23T02:46:38;5.70;99.90
8220;DHT22;4151;51.110;7.020;2024-03-23T02:49:03;5.70;99.90
8220;DHT22;4151;51.110;7.020;2024-03-23T02:51:30;5.70;99.90
8220;DHT22;4151;51.110;7.020;2024-03-23T02:53:55;5.60;99.90
8220;DHT22;4151;51.110;7.020;2024-03-23T02:56:21;5.70;99.90
8220;DHT22;4151;51.110;7.020;2024-03-23T02:58:47;5.70;99.90
8220;DHT22;4151;51.110;7.020;2024-03-23T03:01:12;5.70;99.90
8220;DHT22;4151;51.110;7.020;2024-03-23T03:03:38;5.70;99.90
8220;DHT22;4151;51.110;7.020;2024-03-23T03:06:05;5.50;99.90
8220;DHT22;4151;51.110;7.020;2024-03-23T03:08:30;5.50;99.90
8220;DHT22;4151;51.110;7.020;2024-03-23T03:10:56;5.50;99.90
8220;DHT22;4151;51.110;7.020;2024-03-23T03:13:21;5.40;99.90
8220;DHT22;4151;51.110;7.020;2024-03-23T03:15:47;5.60;99.90
8220;DHT22;4151;51.110;7.020;2024-03-23T03:18:13;5.60;99.90
8220;DHT22;4151;51.110;7.020;2024-03-23T03:20:39;5.50;99.90
8220;DHT22;4151;51.110;7.020;2024-03-23T03:23:06;5.50;99.90
8220;DHT22;4151;51.110;7.020;2024-03-23T03:25:32;5.50;99.90
8220;DHT22;4151;51.110;7.020;2024-03-23T03:27:57;5.40;99.90
8220;DHT22;4151;51.110;7.020;2024-03-23T03:30:23;5.50;99.90
8220;DHT22;4151;51.110;7.020;2024-03-23T03:32:49;5.60;99.90
8220;DHT22;4151;51.110;7.020;2024-03-23T03:35:15;5.60;99.90
8220;DHT22;4151;51.110;7.020;2024-03-23T03:37:40;5.50;99.90
8220;DHT22;4151;51.110;7.020;2024-03-23T03:40:06;5.40;99.90
8220;DHT22;4151;51.110;7.020;2024-03-23T03:42:34;5.50;99.90
8220;DHT22;4151;51.110;7.020;2024-03-23T03:45:00;5.50;99.90
8220;DHT22;4151;51.110;7.020;2024-03-23T03:47:25;5.60;99.90
8220;DHT22;4151;51.110;7.020;2024-03-23T03:49:51;5.70;99.90
8220;DHT22;4151;51.110;7.020;2024-03-23T03:52:16;5.60;99.90
8220;DHT22;4151;51.110;7.020;2024-03-23T03:54:42;5.70;99.90
8220;DHT22;4151;51.110;7.020;2024-03-23T03:57:08;5.60;99.90
8220;DHT22;4151;51.110;7.020;2024-03-23T03:59:34;5.60;99.90
8220;DHT22;4151;51.110;7.020;2024-03-23T04:01:59;5.60;99.90
8220;DHT22;4151;51.110;7.020;2024-03-23T04:04:25;5.60;99.90
8220;DHT22;4151;51.110;7.020;2024-03-23T04:07:01;5.50;99.90
8220;DHT22;4151;51.110;7.020;2024-03-23T04:09:27;5.50;99.90
8220;DHT22;4151;51.110;7.020;2024-03-23T04:11:52;5.40;99.90
8220;DHT22;4151;51.110;7.020;2024-03-23T04:14:18;5.40;99.90
8220;DHT22;4151;51.110;7.020;2024-03-23T04:16:43;5.40;99.90
8220;DHT22;4151;51.110;7.020;2024-03-23T04:19:09;5.40;99.90
8220;DHT22;4151;51.110;7.020;2024-03-23T04:21:36;5.40;99.90
8220;DHT22;4151;51.110;7.020;2024-03-23T04:24:02;5.40;99.90
8220;DHT22;4151;51.110;7.020;2024-03-23T04:26:28;5.30;99.90
8220;DHT22;4151;51.110;7.020;2024-03-23T04:28:53;5.40;99.90
8220;DHT22;4151;51.110;7.020;2024-03-23T04:31:19;5.40;99.90
8220;DHT22;4151;51.110;7.020;2024-03-23T04:33:45;5.40;99.90
8220;DHT22;4151;51.110;7.020;2024-03-23T04:36:10;5.50;99.90
8220;DHT22;4151;51.110;7.020;2024-03-23T04:38:36;5.50;99.90
8220;DHT22;4151;51.110;7.020;2024-03-23T04:41:01;5.40;99.90
8220;DHT22;4151;51.110;7.020;2024-03-23T04:43:27;5.40;99.90
8220;DHT22;4151;51.110;7.020;2024-03-23T04:45:53;5.40;99.90
8220;DHT22;4151;51.110;7.020;2024-03-23T04:48:20;5.40;99.90
8220;DHT22;4151;51.110;7.020;2024-03-23T04:50:47;5.40;99.90
8220;DHT22;4151;51.110;7.020;2024-03-23T04:53:13;5.40;99.90
8220;DHT22;4151;51.110;7.020;2024-03-23T04:55:38;5.40;99.90
8220;DHT22;4151;51.110;7.020;2024-03-23T04:58:04;5.40;99.90
8220;DHT22;4151;51.110;7.020;2024-03-23T05:00:30;5.30;99.90
8220;DHT22;4151;51.110;7.020;2024-03-23T05:02:55;5.30;99.90
8220;DHT22;4151;51.110;7.020;2024-03-23T05:05:21;5.30;99.90
8220;DHT22;4151;51.110;7.020;2024-03-23T05:07:46;5.30;99.90
8220;DHT22;4151;51.110;7.020;2024-03-23T05:10:12;5.30;99.90
8220;DHT22;4151;51.110;7.020;2024-03-23T05:12:39;5.30;99.90
8220;DHT22;4151;51.110;7.020;2024-03-23T05:15:05;5.20;99.90
8220;DHT22;4151;51.110;7.020;2024-03-23T05:17:32;5.20;99.90
8220;DHT22;4151;51.110;7.020;2024-03-23T05:19:58;5.30;99.90
8220;DHT22;4151;51.110;7.020;2024-03-23T05:22:24;5.30;99.90
8220;DHT22;4151;51.110;7.020;2024-03-23T05:24:49;5.20;99.90
8220;DHT22;4151;51.110;7.020;2024-03-23T05:27:15;5.20;99.90
8220;DHT22;4151;51.110;7.020;2024-03-23T05:29:40;5.20;99.90
8220;DHT22;4151;51.110;7.020;2024-03-23T05:32:06;5.20;99.90
8220;DHT22;4151;51.110;7.020;2024-03-23T05:34:32;5.20;99.90
8220;DHT22;4151;51.110;7.020;2024-03-23T05:36:58;5.30;99.90
8220;DHT22;4151;51.110;7.020;2024-03-23T05:39:23;5.30;99.90
8220;DHT22;4151;51.110;7.020;2024-03-23T05:41:49;5.30;99.90
8220;DHT22;4151;51.110;7.020;2024-03-23T05:44:15;5.30;99.90
8220;DHT22;4151;51.110;7.020;2024-03-23T05:46:41;5.30;99.90
8220;DHT22;4151;51.110;7.020;2024-03-23T05:49:07;5.20;99.90
8220;DHT22;4151;51.110;7.020;2024-03-23T05:51:33;5.30;99.90
8220;DHT22;4151;51.110;7.020;2024-03-23T05:53:58;5.30;99.90
8220;DHT22;4151;51.110;7.020;2024-03-23T05:56:24;5.30;99.90
8220;DHT22;4151;51.110;7.020;2024-03-23T05:58:51;5.30;99.90
8220;DHT22;4151;51.110;7.020;2024-03-23T06:01:17;5.30;99.90
8220;DHT22;4151;51.110;7.020;2024-03-23T06:03:42;5.40;99.90
8220;DHT22;4151;51.110;7.020;2024-03-23T06:06:09;5.40;99.90
8220;DHT22;4151;51.110;7.020;2024-03-23T06:08:37;5.40;99.90
8220;DHT22;4151;51.110;7.020;2024-03-23T06:11:04;5.40;99.90
8220;DHT22;4151;51.110;7.020;2024-03-23T06:13:32;5.30;99.90
8220;DHT22;4151;51.110;7.020;2024-03-23T06:15:57;5.30;99.90
8220;DHT22;4151;51.110;7.020;2024-03-23T06:18:24;5.30;99.90
8220;DHT22;4151;51.110;7.020;2024-03-23T06:20:49;5.40;99.90
8220;DHT22;4151;51.110;7.020;2024-03-23T06:23:15;5.30;99.90
8220;DHT22;4151;51.110;7.020;2024-03-23T06:25:42;5.40;99.90
8220;DHT22;4151;51.110;7.020;2024-03-23T06:28:08;5.40;99.90
8220;DHT22;4151;51.110;7.020;2024-03-23T06:30:34;5.40;99.90
8220;DHT22;4151;51.110;7.020;2024-03-23T06:32:59;5.50;99.90
8220;DHT22;4151;51.110;7.020;2024-03-23T06:35:25;5.50;99.90
8220;DHT22;4151;51.110;7.020;2024-03-23T06:37:50;5.50;99.90
8220;DHT22;4151;51.110;7.020;2024-03-23T06:40:16;5.50;99.90
8220;DHT22;4151;51.110;7.020;2024-03-23T06:42:41;5.50;99.90
8220;DHT22;4151;51.110;7.020;2024-03-23T06:45:07;5.60;99.90
8220;DHT22;4151;51.110;7.020;2024-03-23T06:47:33;5.60;99.90
8220;DHT22;4151;51.110;7.020;2024-03-23T06:50:03;5.50;99.90
8220;DHT22;4151;51.110;7.020;2024-03-23T06:52:29;5.50;99.90
8220;DHT22;4151;51.110;7.020;2024-03-23T06:54:55;5.50;99.90
8220;DHT22;4151;51.110;7.020;2024-03-23T06:57:21;5.50;99.90
8220;DHT22;4151;51.110;7.020;2024-03-23T06:59:47;5.50;99.90
8220;DHT22;4151;51.110;7.020;2024-03-23T07:02:13;5.50;99.90
8220;DHT22;4151;51.110;7.020;2024-03-23T07:04:38;5.60;99.90
8220;DHT22;4151;51.110;7.020;2024-03-23T07:07:07;5.50;99.90
8220;DHT22;4151;51.110;7.020;2024-03-23T07:09:33;5.50;99.90
8220;DHT22;4151;51.110;7.020;2024-03-23T07:11:58;5.60;99.90
8220;DHT22;4151;51.110;7.020;2024-03-23T07:14:24;5.50;99.90
8220;DHT22;4151;51.110;7.020;2024-03-23T07:16:50;5.60;99.90
8220;DHT22;4151;51.110;7.020;2024-03-23T07:19:16;5.60;99.90
8220;DHT22;4151;51.110;7.020;2024-03-23T07:21:43;5.60;99.90
8220;DHT22;4151;51.110;7.020;2024-03-23T07:24:09;5.70;99.90
8220;DHT22;4151;51.110;7.020;2024-03-23T07:26:35;5.70;99.90
8220;DHT22;4151;51.110;7.020;2024-03-23T07:29:01;5.80;99.90
8220;DHT22;4151;51.110;7.020;2024-03-23T07:31:27;5.80;99.90
8220;DHT22;4151;51.110;7.020;2024-03-23T07:33:53;5.90;99.90
8220;DHT22;4151;51.110;7.020;2024-03-23T07:36:19;5.90;99.90
8220;DHT22;4151;51.110;7.020;2024-03-23T07:38:45;6.00;99.90
8220;DHT22;4151;51.110;7.020;2024-03-23T07:41:18;6.10;99.90
8220;DHT22;4151;51.110;7.020;2024-03-23T07:43:44;6.20;99.90
8220;DHT22;4151;51.110;7.020;2024-03-23T07:46:10;6.30;99.90
8220;DHT22;4151;51.110;7.020;2024-03-23T07:48:37;6.50;99.90
8220;DHT22;4151;51.110;7.020;2024-03-23T07:51:05;6.60;99.90
8220;DHT22;4151;51.110;7.020;2024-03-23T07:53:31;6.50;99.90
8220;DHT22;4151;51.110;7.020;2024-03-23T07:56:02;6.60;99.90
8220;DHT22;4151;51.110;7.020;2024-03-23T07:58:28;6.70;99.90
8220;DHT22;4151;51.110;7.020;2024-03-23T08:01:10;6.80;99.90
8220;DHT22;4151;51.110;7.020;2024-03-23T08:03:37;7.00;99.90
8220;DHT22;4151;51.110;7.020;2024-03-23T08:06:21;7.20;99.90
8220;DHT22;4151;51.110;7.020;2024-03-23T08:08:55;7.30;99.90
8220;DHT22;4151;51.110;7.020;2024-03-23T08:11:30;7.30;99.90
8220;DHT22;4151;51.110;7.020;2024-03-23T08:13:57;7.30;99.90
8220;DHT22;4151;51.110;7.020;2024-03-23T08:16:23;7.40;99.90
8220;DHT22;4151;51.110;7.020;2024-03-23T08:18:51;7.50;99.90
8220;DHT22;4151;51.110;7.020;2024-03-23T08:21:17;7.60;99.90
8220;DHT22;4151;51.110;7.020;2024-03-23T08:23:43;7.70;99.90
8220;DHT22;4151;51.110;7.020;2024-03-23T08:26:11;7.70;99.90
8220;DHT22;4151;51.110;7.020;2024-03-23T08:28:37;7.90;99.90
8220;DHT22;4151;51.110;7.020;2024-03-23T08:31:12;8.00;99.90
8220;DHT22;4151;51.110;7.020;2024-03-23T08:33:40;8.20;99.90
8220;DHT22;4151;51.110;7.020;2024-03-23T08:36:09;8.20;99.90
8220;DHT22;4151;51.110;7.020;2024-03-23T08:38:35;8.20;99.90
8220;DHT22;4151;51.110;7.020;2024-03-23T08:43:26;8.00;99.90
8220;DHT22;4151;51.110;7.020;2024-03-23T08:45:52;8.00;99.90
8220;DHT22;4151;51.110;7.020;2024-03-23T08:48:21;7.90;99.90
8220;DHT22;4151;51.110;7.020;2024-03-23T08:50:47;8.00;99.90
8220;DHT22;4151;51.110;7.020;2024-03-23T08:53:22;8.10;99.90
8220;DHT22;4151;51.110;7.020;2024-03-23T08:55:54;8.40;99.90
8220;DHT22;4151;51.110;7.020;2024-03-23T08:58:19;8.70;99.90
8220;DHT22;4151;51.110;7.020;2024-03-23T09:00:45;8.70;99.90
8220;DHT22;4151;51.110;7.020;2024-03-23T09:03:12;9.10;99.90
8220;DHT22;4151;51.110;7.020;2024-03-23T09:05:41;9.40;99.90
8220;DHT22;4151;51.110;7.020;2024-03-23T09:08:06;9.40;99.90
8220;DHT22;4151;51.110;7.020;2024-03-23T09:10:37;9.20;99.90
8220;DHT22;4151;51.110;7.020;2024-03-23T09:13:03;9.00;99.90
8220;DHT22;4151;51.110;7.020;2024-03-23T09:15:29;8.50;99.90
8220;DHT22;4151;51.110;7.020;2024-03-23T09:17:54;8.20;99.90
8220;DHT22;4151;51.110;7.020;2024-03-23T09:20:20;8.20;99.90
8220;DHT22;4151;51.110;7.020;2024-03-23T09:22:48;8.50;99.90
8220;DHT22;4151;51.110;7.020;2024-03-23T09:25:14;8.70;99.90
8220;DHT22;4151;51.110;7.020;2024-03-23T09:27:39;9.00;99.90
8220;DHT22;4151;51.110;7.020;2024-03-23T09:30:05;9.00;99.90
8220;DHT22;4151;51.110;7.020;2024-03-23T09:32:31;8.90;99.90
8220;DHT22;4151;51.110;7.020;2024-03-23T09:34:56;9.10;99.90
8220;DHT22;4151;51.110;7.020;2024-03-23T09:37:22;8.80;99.90
8220;DHT22;4151;51.110;7.020;2024-03-23T09:39:48;8.40;99.90
8220;DHT22;4151;51.110;7.020;2024-03-23T09:42:13;8.20;99.90
8220;DHT22;4151;51.110;7.020;2024-03-23T09:44:40;8.20;99.90
8220;DHT22;4151;51.110;7.020;2024-03-23T09:47:07;8.60;99.90
8220;DHT22;4151;51.110;7.020;2024-03-23T09:49:34;8.90;99.90
8220;DHT22;4151;51.110;7.020;2024-03-23T09:52:02;9.60;99.90
8220;DHT22;4151;51.110;7.020;2024-03-23T09:54:28;9.60;99.90
8220;DHT22;4151;51.110;7.020;2024-03-23T09:56:53;9.10;99.90
8220;DHT22;4151;51.110;7.020;2024-03-23T09:59:19;8.50;99.90
8220;DHT22;4151;51.110;7.020;2024-03-23T10:01:45;8.70;99.90
8220;DHT22;4151;51.110;7.020;2024-03-23T10:04:10;9.40;99.90
8220;DHT22;4151;51.110;7.020;2024-03-23T10:06:37;9.80;99.90
8220;DHT22;4151;51.110;7.020;2024-03-23T10:09:16;9.90;99.90
8220;DHT22;4151;51.110;7.020;2024-03-23T10:11:43;9.30;99.90
8220;DHT22;4151;51.110;7.020;2024-03-23T10:14:29;9.00;99.90
8220;DHT22;4151;51.110;7.020;2024-03-23T10:19:40;8.70;99.90
8220;DHT22;4151;51.110;7.020;2024-03-23T10:22:14;8.50;99.90
8220;DHT22;4151;51.110;7.020;2024-03-23T10:24:40;8.50;99.90
8220;DHT22;4151;51.110;7.020;2024-03-23T10:27:06;8.40;99.90
8220;DHT22;4151;51.110;7.020;2024-03-23T10:29:31;8.40;99.90
8220;DHT22;4151;51.110;7.020;2024-03-23T10:32:10;8.60;99.90
8220;DHT22;4151;51.110;7.020;2024-03-23T10:34:37;9.00;99.90
8220;DHT22;4151;51.110;7.020;2024-03-23T10:37:03;9.00;99.90
8220;DHT22;4151;51.110;7.020;2024-03-23T10:39:37;8.80;99.90
8220;DHT22;4151;51.110;7.020;2024-03-23T10:42:04;8.90;99.90
8220;DHT22;4151;51.110;7.020;2024-03-23T10:44:31;8.90;99.90
8220;DHT22;4151;51.110;7.020;2024-03-23T10:46:58;8.70;99.90
8220;DHT22;4151;51.110;7.020;2024-03-23T10:49:33;8.00;99.90
8220;DHT22;4151;51.110;7.020;2024-03-23T10:52:05;7.80;99.90
8220;DHT22;4151;51.110;7.020;2024-03-23T10:54:32;7.80;99.90
8220;DHT22;4151;51.110;7.020;2024-03-23T10:59:29;8.30;99.90
8220;DHT22;4151;51.110;7.020;2024-03-23T11:01:57;8.70;99.90
8220;DHT22;4151;51.110;7.020;2024-03-23T11:04:37;8.80;99.90
8220;DHT22;4151;51.110;7.020;2024-03-23T11:09:50;8.30;99.90
8220;DHT22;4151;51.110;7.020;2024-03-23T11:14:52;7.40;99.90
8220;DHT22;4151;51.110;7.020;2024-03-23T11:19:59;6.60;99.90
8220;DHT22;4151;51.110;7.020;2024-03-23T11:22:41;6.20;99.90
8220;DHT22;4151;51.110;7.020;2024-03-23T11:25:15;5.80;99.90
8220;DHT22;4151;51.110;7.020;2024-03-23T11:27:41;5.70;99.90
8220;DHT22;4151;51.110;7.020;2024-03-23T11:32:46;5.60;99.90
8220;DHT22;4151;51.110;7.020;2024-03-23T11:35:31;5.50;99.90
8220;DHT22;4151;51.110;7.020;2024-03-23T11:38:11;5.50;99.90
8220;DHT22;4151;51.110;7.020;2024-03-23T11:40:39;5.70;99.90
8220;DHT22;4151;51.110;7.020;2024-03-23T11:43:07;6.00;99.90
8220;DHT22;4151;51.110;7.020;2024-03-23T11:48:10;7.20;99.90
8220;DHT22;4151;51.110;7.020;2024-03-23T11:50:40;8.70;99.90
8220;DHT22;4151;51.110;7.020;2024-03-23T11:56:02;9.90;99.90
8220;DHT22;4151;51.110;7.020;2024-03-23T11:58:28;10.70;99.90
8220;DHT22;4151;51.110;7.020;2024-03-23T12:01:01;10.70;99.90
8220;DHT22;4151;51.110;7.020;2024-03-23T12:03:28;10.70;99.90
8220;DHT22;4151;51.110;7.020;2024-03-23T12:05:54;10.60;99.90
8220;DHT22;4151;51.110;7.020;2024-03-23T12:08:31;10.60;99.90
8220;DHT22;4151;51.110;7.020;2024-03-23T12:11:13;10.80;99.90
8220;DHT22;4151;51.110;7.020;2024-03-23T12:13:41;11.10;99.90
8220;DHT22;4151;51.110;7.020;2024-03-23T12:18:41;11.80;99.90
8220;DHT22;4151;51.110;7.020;2024-03-23T12:21:07;11.00;99.90
8220;DHT22;4151;51.110;7.020;2024-03-23T12:23:33;9.20;99.90
8220;DHT22;4151;51.110;7.020;2024-03-23T12:25:59;7.80;99.90
8220;DHT22;4151;51.110;7.020;2024-03-23T12:28:25;6.60;99.90
8220;DHT22;4151;51.110;7.020;2024-03-23T12:30:51;6.00;99.90
8220;DHT22;4151;51.110;7.020;2024-03-23T12:33:20;5.80;99.90
8220;DHT22;4151;51.110;7.020;2024-03-23T12:35:47;5.90;99.90
8220;DHT22;4151;51.110;7.020;2024-03-23T12:38:12;5.90;99.90
8220;DHT22;4151;51.110;7.020;2024-03-23T12:40:38;5.90;99.90
8220;DHT22;4151;51.110;7.020;2024-03-23T12:43:03;6.00;99.90
8220;DHT22;4151;51.110;7.020;2024-03-23T12:45:29;6.10;99.90
8220;DHT22;4151;51.110;7.020;2024-03-23T12:47:55;6.20;99.90
8220;DHT22;4151;51.110;7.020;2024-03-23T12:50:21;6.20;99.90
8220;DHT22;4151;51.110;7.020;2024-03-23T12:52:47;5.80;99.90
8220;DHT22;4151;51.110;7.020;2024-03-23T12:55:13;5.60;99.90
8220;DHT22;4151;51.110;7.020;2024-03-23T12:57:38;5.30;99.90
8220;DHT22;4151;51.110;7.020;2024-03-23T13:00:06;5.20;99.90
8220;DHT22;4151;51.110;7.020;2024-03-23T13:02:32;5.30;99.90
8220;DHT22;4151;51.110;7.020;2024-03-23T13:05:00;5.50;99.90
8220;DHT22;4151;51.110;7.020;2024-03-23T13:07:25;6.00;99.90
8220;DHT22;4151;51.110;7.020;2024-03-23T13:09:52;6.70;99.90
8220;DHT22;4151;51.110;7.020;2024-03-23T13:12:18;7.40;99.90
8220;DHT22;4151;51.110;7.020;2024-03-23T13:14:46;8.10;99.90
8220;DHT22;4151;51.110;7.020;2024-03-23T13:17:13;9.00;99.90
8220;DHT22;4151;51.110;7.020;2024-03-23T13:19:39;9.20;99.90
8220;DHT22;4151;51.110;7.020;2024-03-23T13:22:04;9.70;99.90
8220;DHT22;4151;51.110;7.020;2024-03-23T13:24:30;10.20;99.90
8220;DHT22;4151;51.110;7.020;2024-03-23T13:26:57;10.40;99.90
8220;DHT22;4151;51.110;7.020;2024-03-23T13:29:23;10.70;99.90
8220;DHT22;4151;51.110;7.020;2024-03-23T13:31:50;10.20;99.90
8220;DHT22;4151;51.110;7.020;2024-03-23T13:34:16;10.10;99.90
8220;DHT22;4151;51.110;7.020;2024-03-23T13:36:43;9.90;99.90
8220;DHT22;4151;51.110;7.020;2024-03-23T13:39:08;9.70;99.90
8220;DHT22;4151;51.110;7.020;2024-03-23T13:41:43;9.70;99.90
8220;DHT22;4151;51.110;7.020;2024-03-23T13:44:10;9.60;99.90
8220;DHT22;4151;51.110;7.020;2024-03-23T13:46:37;9.70;99.90
8220;DHT22;4151;51.110;7.020;2024-03-23T13:49:03;9.40;99.90
8220;DHT22;4151;51.110;7.020;2024-03-23T13:51:29;9.10;99.90
8220;DHT22;4151;51.110;7.020;2024-03-23T13:53:55;8.90;99.90
8220;DHT22;4151;51.110;7.020;2024-03-23T13:56:24;8.90;99.90
8220;DHT22;4151;51.110;7.020;2024-03-23T13:58:50;8.60;99.90
8220;DHT22;4151;51.110;7.020;2024-03-23T14:01:16;8.40;99.90
8220;DHT22;4151;51.110;7.020;2024-03-23T14:03:42;8.20;99.90
8220;DHT22;4151;51.110;7.020;2024-03-23T14:06:09;8.40;99.90
8220;DHT22;4151;51.110;7.020;2024-03-23T14:08:35;7.80;99.90
8220;DHT22;4151;51.110;7.020;2024-03-23T14:11:05;7.60;99.90
8220;DHT22;4151;51.110;7.020;2024-03-23T14:13:31;7.60;99.90
8220;DHT22;4151;51.110;7.020;2024-03-23T14:15:57;7.70;99.90
8220;DHT22;4151;51.110;7.020;2024-03-23T14:18:22;8.10;99.90
8220;DHT22;4151;51.110;7.020;2024-03-23T14:20:49;8.70;99.90
8220;DHT22;4151;51.110;7.020;2024-03-23T14:23:15;9.90;99.90
8220;DHT22;4151;51.110;7.020;2024-03-23T14:25:41;11.10;99.90
8220;DHT22;4151;51.110;7.020;2024-03-23T14:28:07;11.80;99.90
8220;DHT22;4151;51.110;7.020;2024-03-23T14:30:39;13.30;99.90
8220;DHT22;4151;51.110;7.020;2024-03-23T14:33:04;13.30;99.90
8220;DHT22;4151;51.110;7.020;2024-03-23T14:35:30;12.50;99.90
8220;DHT22;4151;51.110;7.020;2024-03-23T14:37:58;11.70;99.90
8220;DHT22;4151;51.110;7.020;2024-03-23T14:40:23;10.50;99.90
8220;DHT22;4151;51.110;7.020;2024-03-23T14:42:52;9.20;99.90
8220;DHT22;4151;51.110;7.020;2024-03-23T14:45:17;8.70;99.90
8220;DHT22;4151;51.110;7.020;2024-03-23T14:47:43;8.40;99.90
8220;DHT22;4151;51.110;7.020;2024-03-23T14:50:08;8.40;99.90
8220;DHT22;4151;51.110;7.020;2024-03-23T14:52:37;8.10;99.90
8220;DHT22;4151;51.110;7.020;2024-03-23T14:55:02;7.90;99.90
8220;DHT22;4151;51.110;7.020;2024-03-23T14:57:28;7.70;99.90
8220;DHT22;4151;51.110;7.020;2024-03-23T14:59:55;7.40;99.90
8220;DHT22;4151;51.110;7.020;2024-03-23T15:02:20;7.20;99.90
8220;DHT22;4151;51.110;7.020;2024-03-23T15:04:46;7.10;99.90
8220;DHT22;4151;51.110;7.020;2024-03-23T15:07:11;7.10;99.90
8220;DHT22;4151;51.110;7.020;2024-03-23T15:09:37;6.90;99.90
8220;DHT22;4151;51.110;7.020;2024-03-23T15:12:02;6.80;99.90
8220;DHT22;4151;51.110;7.020;2024-03-23T15:14:28;6.70;99.90
8220;DHT22;4151;51.110;7.020;2024-03-23T15:16:54;6.70;99.90
8220;DHT22;4151;51.110;7.020;2024-03-23T15:19:19;6.70;99.90
8220;DHT22;4151;51.110;7.020;2024-03-23T15:21:45;6.70;99.90
8220;DHT22;4151;51.110;7.020;2024-03-23T15:24:10;6.90;99.90
8220;DHT22;4151;51.110;7.020;2024-03-23T15:26:38;7.40;99.90
8220;DHT22;4151;51.110;7.020;2024-03-23T15:29:04;8.70;99.90
8220;DHT22;4151;51.110;7.020;2024-03-23T15:31:37;9.10;99.90
8220;DHT22;4151;51.110;7.020;2024-03-23T15:34:03;9.70;99.90
8220;DHT22;4151;51.110;7.020;2024-03-23T15:36:30;10.10;99.90
8220;DHT22;4151;51.110;7.020;2024-03-23T15:38:55;10.60;99.90
8220;DHT22;4151;51.110;7.020;2024-03-23T15:41:21;10.80;99.90
8220;DHT22;4151;51.110;7.020;2024-03-23T15:43:49;11.10;99.90
8220;DHT22;4151;51.110;7.020;2024-03-23T15:46:14;11.70;99.90
8220;DHT22;4151;51.110;7.020;2024-03-23T15:48:41;12.60;99.90
8220;DHT22;4151;51.110;7.020;2024-03-23T15:51:11;12.60;99.90
8220;DHT22;4151;51.110;7.020;2024-03-23T15:53:37;12.40;99.90
8220;DHT22;4151;51.110;7.020;2024-03-23T15:56:03;11.90;99.90
8220;DHT22;4151;51.110;7.020;2024-03-23T15:58:30;12.10;99.90
8220;DHT22;4151;51.110;7.020;2024-03-23T16:01:03;11.60;99.90
8220;DHT22;4151;51.110;7.020;2024-03-23T16:03:29;10.80;99.90
8220;DHT22;4151;51.110;7.020;2024-03-23T16:05:57;10.10;99.90
8220;DHT22;4151;51.110;7.020;2024-03-23T16:08:23;9.10;99.90
8220;DHT22;4151;51.110;7.020;2024-03-23T16:10:49;8.80;99.90
8220;DHT22;4151;51.110;7.020;2024-03-23T16:13:16;8.60;99.90
8220;DHT22;4151;51.110;7.020;2024-03-23T16:15:42;8.40;99.90
8220;DHT22;4151;51.110;7.020;2024-03-23T16:18:07;8.20;99.90
8220;DHT22;4151;51.110;7.020;2024-03-23T16:20:33;8.00;99.90
8220;DHT22;4151;51.110;7.020;2024-03-23T16:23:03;7.80;99.90
8220;DHT22;4151;51.110;7.020;2024-03-23T16:25:29;7.60;99.90
8220;DHT22;4151;51.110;7.020;2024-03-23T16:27:55;7.80;99.90
8220;DHT22;4151;51.110;7.020;2024-03-23T16:30:21;8.90;99.90
8220;DHT22;4151;51.110;7.020;2024-03-23T16:32:47;9.10;99.90
8220;DHT22;4151;51.110;7.020;2024-03-23T16:35:13;9.70;99.90
8220;DHT22;4151;51.110;7.020;2024-03-23T16:37:39;10.30;99.90
8220;DHT22;4151;51.110;7.020;2024-03-23T16:40:05;10.50;99.90
8220;DHT22;4151;51.110;7.020;2024-03-23T16:42:32;11.00;99.90
8220;DHT22;4151;51.110;7.020;2024-03-23T16:44:58;11.50;99.90
8220;DHT22;4151;51.110;7.020;2024-03-23T16:47:23;11.60;99.90
8220;DHT22;4151;51.110;7.020;2024-03-23T16:49:49;10.60;99.90
8220;DHT22;4151;51.110;7.020;2024-03-23T16:52:14;9.50;99.90
8220;DHT22;4151;51.110;7.020;2024-03-23T16:54:41;8.80;99.90
8220;DHT22;4151;51.110;7.020;2024-03-23T16:57:07;9.00;99.90
8220;DHT22;4151;51.110;7.020;2024-03-23T16:59:32;9.00;99.90
8220;DHT22;4151;51.110;7.020;2024-03-23T17:01:58;8.90;99.90
8220;DHT22;4151;51.110;7.020;2024-03-23T17:04:23;8.50;99.90
8220;DHT22;4151;51.110;7.020;2024-03-23T17:06:49;8.60;99.90
8220;DHT22;4151;51.110;7.020;2024-03-23T17:09:15;8.40;99.90
8220;DHT22;4151;51.110;7.020;2024-03-23T17:11:42;8.30;99.90
8220;DHT22;4151;51.110;7.020;2024-03-23T17:14:09;8.20;99.90
8220;DHT22;4151;51.110;7.020;2024-03-23T17:16:35;7.80;99.90
8220;DHT22;4151;51.110;7.020;2024-03-23T17:19:00;7.50;99.90
8220;DHT22;4151;51.110;7.020;2024-03-23T17:21:26;7.20;99.90
8220;DHT22;4151;51.110;7.020;2024-03-23T17:23:53;7.00;99.90
8220;DHT22;4151;51.110;7.020;2024-03-23T17:26:25;6.80;99.90
8220;DHT22;4151;51.110;7.020;2024-03-23T17:28:51;6.60;99.90
8220;DHT22;4151;51.110;7.020;2024-03-23T17:31:19;6.50;99.90
8220;DHT22;4151;51.110;7.020;2024-03-23T17:33:49;6.40;99.90